createdAt,value
2019-02-09T00:01:22.960Z,100694.29
2019-02-09T00:03:57.178Z,100680.97
2019-02-09T00:06:29.405Z,100681.93
2019-02-09T00:09:01.771Z,100678.27
2019-02-09T00:11:35.833Z,100679.11
2019-02-09T00:14:08.184Z,100669.70
2019-02-09T00:16:40.483Z,100658.17
2019-02-09T00:19:12.860Z,100653.48
2019-02-09T00:21:45.168Z,100656.98
2019-02-09T00:24:17.538Z,100649.22
2019-02-09T00:26:49.836Z,100647.80
2019-02-09T00:29:22.153Z,100638.45
2019-02-09T00:31:54.614Z,100637.14
2019-02-09T00:34:28.116Z,100630.62
2019-02-09T00:37:00.448Z,100631.70
2019-02-09T00:39:32.778Z,100621.21
2019-02-09T00:42:05.125Z,100628.63
2019-02-09T00:44:38.542Z,100622.70
2019-02-09T00:47:10.924Z,100615.82
2019-02-09T00:49:43.226Z,100621.34
2019-02-09T00:52:15.545Z,100607.02
2019-02-09T00:54:47.899Z,100596.65
2019-02-09T00:57:20.184Z,100600.55
2019-02-09T00:59:54.317Z,100587.89
2019-02-09T01:02:26.435Z,100586.53
2019-02-09T01:04:58.730Z,100576.09
2019-02-09T01:07:31.046Z,100566.22
2019-02-09T01:10:03.348Z,100569.19
2019-02-09T01:12:35.726Z,100557.70
2019-02-09T01:15:10.728Z,100558.58
2019-02-09T01:17:43.127Z,100554.32
2019-02-09T01:20:18.755Z,100545.27
2019-02-09T01:22:51.297Z,100539.34
2019-02-09T01:25:23.534Z,100535.02
2019-02-09T01:27:55.914Z,100535.42
2019-02-09T01:30:28.736Z,100524.17
2019-02-09T01:33:01.121Z,100528.62
2019-02-09T01:35:33.469Z,100521.32
2019-02-09T01:38:05.822Z,100511.38
2019-02-09T01:40:38.084Z,100511.91
2019-02-09T01:43:10.414Z,100503.98
2019-02-09T01:45:42.686Z,100500.49
2019-02-09T01:48:15.018Z,100497.94
2019-02-09T01:50:47.350Z,100490.38
2019-02-09T01:53:19.623Z,100487.28
2019-02-09T01:55:51.951Z,100477.81
2019-02-09T01:58:25.314Z,100481.25
2019-02-09T02:00:57.567Z,100483.61
2019-02-09T02:03:29.885Z,100474.17
2019-02-09T02:06:02.179Z,100462.28
2019-02-09T02:08:34.423Z,100460.21
2019-02-09T02:11:06.867Z,100450.05
2019-02-09T02:13:39.170Z,100454.72
2019-02-09T02:16:11.413Z,100453.42
2019-02-09T02:18:43.676Z,100455.52
2019-02-09T02:21:15.977Z,100452.95
2019-02-09T02:23:48.254Z,100450.25
2019-02-09T02:26:20.538Z,100440.13
2019-02-09T02:28:52.818Z,100435.23
2019-02-09T02:31:25.208Z,100428.25
2019-02-09T02:33:57.509Z,100414.88
2019-02-09T02:36:29.771Z,100410.44
2019-02-09T02:39:02.078Z,100400.13
2019-02-09T02:41:35.931Z,100401.69
2019-02-09T02:44:08.219Z,100390.44
2019-02-09T02:46:40.554Z,100395.02
2019-02-09T02:49:12.928Z,100397.46
2019-02-09T02:51:45.338Z,100409.92
2019-02-09T02:54:17.649Z,100395.39
2019-02-09T02:56:49.891Z,100387.57
2019-02-09T02:59:22.164Z,100384.12
2019-02-09T03:01:54.414Z,100373.70
2019-02-09T03:04:26.832Z,100367.20
2019-02-09T03:06:59.064Z,100367.30
2019-02-09T03:09:31.413Z,100367.83
2019-02-09T03:12:03.675Z,100382.52
2019-02-09T03:14:35.952Z,100372.97
2019-02-09T03:17:08.280Z,100366.05
2019-02-09T03:19:40.518Z,100358.50
2019-02-09T03:22:13.149Z,100353.71
2019-02-09T03:24:45.753Z,100354.22
2019-02-09T03:27:18.062Z,100359.17
2019-02-09T03:29:50.346Z,100360.56
2019-02-09T03:32:22.697Z,100361.97
2019-02-09T03:34:54.927Z,100356.61
2019-02-09T03:37:27.222Z,100364.48
2019-02-09T03:40:00.560Z,100361.59
2019-02-09T03:42:32.860Z,100354.11
2019-02-09T03:45:07.318Z,100350.62
2019-02-09T03:47:39.691Z,100334.88
2019-02-09T03:50:12.946Z,100342.65
2019-02-09T03:52:45.273Z,100328.27
2019-02-09T03:55:17.637Z,100320.82
2019-02-09T03:57:49.925Z,100317.23
2019-02-09T04:00:24.252Z,100312.50
2019-02-09T04:02:57.097Z,100308.59
2019-02-09T04:05:29.699Z,100308.36
2019-02-09T04:08:02.109Z,100301.84
2019-02-09T04:10:34.770Z,100302.22
2019-02-09T04:13:07.100Z,100298.78
2019-02-09T04:15:39.373Z,100292.35
2019-02-09T04:18:11.692Z,100306.22
2019-02-09T04:20:44.020Z,100313.53
2019-02-09T04:23:16.245Z,100309.61
2019-02-09T04:25:48.554Z,100300.08
2019-02-09T04:28:20.835Z,100289.70
2019-02-09T04:30:53.078Z,100285.84
2019-02-09T04:33:25.443Z,100280.30
2019-02-09T04:35:57.831Z,100277.60
2019-02-09T04:38:30.119Z,100269.74
2019-02-09T04:41:02.511Z,100272.20
2019-02-09T04:43:34.832Z,100274.91
2019-02-09T04:46:07.069Z,100252.29
2019-02-09T04:48:39.408Z,100252.72
2019-02-09T04:51:11.676Z,100241.87
2019-02-09T04:53:43.940Z,100231.68
2019-02-09T04:56:26.065Z,100227.36
2019-02-09T04:59:03.625Z,100229.12
2019-02-09T05:01:35.989Z,100217.53
2019-02-09T05:04:08.293Z,100221.45
2019-02-09T05:06:40.547Z,100209.13
2019-02-09T05:09:12.919Z,100210.60
2019-02-09T05:11:45.185Z,100205.82
2019-02-09T05:14:17.438Z,100196.28
2019-02-09T05:16:49.782Z,100203.34
2019-02-09T05:19:22.102Z,100193.94
2019-02-09T05:21:54.384Z,100187.01
2019-02-09T05:24:26.744Z,100178.68
2019-02-09T05:26:59.073Z,100167.38
2019-02-09T05:29:31.444Z,100153.05
2019-02-09T05:32:03.700Z,100153.13
2019-02-09T05:34:35.983Z,100154.84
2019-02-09T05:37:08.350Z,100142.28
2019-02-09T05:39:40.683Z,100144.43
2019-02-09T05:42:12.951Z,100144.01
2019-02-09T05:44:45.282Z,100140.94
2019-02-09T05:47:17.615Z,100138.33
2019-02-09T05:49:49.867Z,100133.95
2019-02-09T05:52:22.227Z,100133.58
2019-02-09T05:54:54.565Z,100124.05
2019-02-09T05:57:26.887Z,100123.66
2019-02-09T05:59:59.158Z,100125.81
2019-02-09T06:02:31.446Z,100114.88
2019-02-09T06:05:05.019Z,100105.34
2019-02-09T06:07:37.356Z,100114.13
2019-02-09T06:10:13.617Z,100109.71
2019-02-09T06:12:46.027Z,100105.00
2019-02-09T06:15:18.702Z,100108.49
2019-02-09T06:17:51.081Z,100107.18
2019-02-09T06:20:25.355Z,100111.05
2019-02-09T06:22:58.024Z,100101.09
2019-02-09T06:25:30.434Z,100099.79
2019-02-09T06:28:02.752Z,100101.98
2019-02-09T06:30:34.990Z,100093.73
2019-02-09T06:33:09.318Z,100099.79
2019-02-09T06:35:41.684Z,100096.77
2019-02-09T06:38:14.087Z,100095.42
2019-02-09T06:40:46.317Z,100100.67
2019-02-09T06:43:18.546Z,100105.34
2019-02-09T06:45:50.862Z,100106.22
2019-02-09T06:48:28.314Z,100105.77
2019-02-09T06:51:02.158Z,100106.34
2019-02-09T06:53:34.618Z,100105.50
2019-02-09T06:56:07.028Z,100103.44
2019-02-09T06:58:39.339Z,100086.88
2019-02-09T07:01:11.611Z,100089.94
2019-02-09T07:03:43.881Z,100078.64
2019-02-09T07:06:16.572Z,100078.67
2019-02-09T07:08:48.913Z,100081.28
2019-02-09T07:11:21.162Z,100081.70
2019-02-09T07:13:53.436Z,100081.83
2019-02-09T07:16:25.826Z,100069.55
2019-02-09T07:18:58.278Z,100080.52
2019-02-09T07:21:30.580Z,100075.38
2019-02-09T07:24:02.889Z,100083.63
2019-02-09T07:26:35.131Z,100081.86
2019-02-09T07:29:07.424Z,100083.55
2019-02-09T07:31:39.727Z,100079.17
2019-02-09T07:34:12.000Z,100082.70
2019-02-09T07:36:44.244Z,100093.55
2019-02-09T07:39:16.523Z,100089.60
2019-02-09T07:41:48.867Z,100083.12
2019-02-09T07:44:21.142Z,100075.77
2019-02-09T07:46:53.611Z,100072.81
2019-02-09T07:49:25.876Z,100083.70
2019-02-09T07:51:58.228Z,100084.20
2019-02-09T07:54:30.500Z,100072.47
2019-02-09T07:57:02.842Z,100068.13
2019-02-09T07:59:35.134Z,100068.70
2019-02-09T08:02:07.469Z,100069.73
2019-02-09T08:04:39.940Z,100062.58
2019-02-09T08:07:12.659Z,100065.36
2019-02-09T08:09:45.007Z,100062.05
2019-02-09T08:12:17.301Z,100062.62
2019-02-09T08:14:49.624Z,100059.78
2019-02-09T08:17:21.921Z,100044.77
2019-02-09T08:19:54.301Z,100051.05
2019-02-09T08:22:26.600Z,100051.11
2019-02-09T08:24:58.990Z,100051.19
2019-02-09T08:27:31.272Z,100064.70
2019-02-09T08:30:03.760Z,100068.11
2019-02-09T08:32:36.140Z,100074.94
2019-02-09T08:35:09.355Z,100066.16
2019-02-09T08:37:41.667Z,100068.23
2019-02-09T08:40:14.412Z,100065.20
2019-02-09T08:42:46.645Z,100062.52
2019-02-09T08:45:19.813Z,100065.65
2019-02-09T08:47:52.154Z,100071.33
2019-02-09T08:50:27.366Z,100069.69
2019-02-09T08:52:59.666Z,100060.13
2019-02-09T08:55:31.996Z,100069.78
2019-02-09T08:58:04.349Z,100071.14
2019-02-09T09:00:38.533Z,100073.84
2019-02-09T09:03:11.105Z,100073.41
2019-02-09T09:05:43.407Z,100076.99
2019-02-09T09:08:16.607Z,100067.91
2019-02-09T09:10:48.970Z,100060.58
2019-02-09T09:13:21.194Z,100060.73
2019-02-09T09:15:55.410Z,100062.12
2019-02-09T09:18:28.788Z,100058.70
2019-02-09T09:21:03.095Z,100052.62
2019-02-09T09:23:35.332Z,100047.45
2019-02-09T09:26:07.782Z,100051.13
2019-02-09T09:28:40.317Z,100058.17
2019-02-09T09:31:12.601Z,100057.34
2019-02-09T09:33:44.923Z,100063.05
2019-02-09T09:36:17.235Z,100066.16
2019-02-09T09:38:49.621Z,100058.79
2019-02-09T09:41:21.950Z,100056.19
2019-02-09T09:43:54.280Z,100054.09
2019-02-09T09:46:26.553Z,100045.92
2019-02-09T09:48:58.821Z,100046.48
2019-02-09T09:51:31.055Z,100049.94
2019-02-09T09:54:03.315Z,100053.03
2019-02-09T09:56:35.559Z,100052.17
2019-02-09T09:59:07.823Z,100048.31
2019-02-09T10:01:40.153Z,100043.69
2019-02-09T10:04:12.459Z,100044.69
2019-02-09T10:06:44.723Z,100035.23
2019-02-09T10:09:16.968Z,100027.89
2019-02-09T10:11:49.244Z,100037.11
2019-02-09T10:14:21.564Z,100035.77
2019-02-09T10:16:53.829Z,100028.38
2019-02-09T10:19:26.101Z,100030.99
2019-02-09T10:21:58.345Z,100040.59
2019-02-09T10:24:30.590Z,100042.77
2019-02-09T10:27:02.952Z,100041.90
2019-02-09T10:29:35.246Z,100048.86
2019-02-09T10:32:07.470Z,100051.02
2019-02-09T10:34:39.734Z,100053.66
2019-02-09T10:37:11.974Z,100056.26
2019-02-09T10:39:44.324Z,100066.27
2019-02-09T10:42:16.571Z,100069.76
2019-02-09T10:44:48.825Z,100069.31
2019-02-09T10:47:21.051Z,100071.03
2019-02-09T10:49:53.318Z,100064.52
2019-02-09T10:52:25.574Z,100064.22
2019-02-09T10:54:57.915Z,100063.47
2019-02-09T10:57:30.140Z,100062.62
2019-02-09T11:00:02.464Z,100054.84
2019-02-09T11:02:34.976Z,100053.56
2019-02-09T11:05:07.960Z,100053.13
2019-02-09T11:07:40.345Z,100055.80
2019-02-09T11:10:14.588Z,100054.93
2019-02-09T11:12:47.713Z,100048.88
2019-02-09T11:15:20.729Z,100059.41
2019-02-09T11:17:53.432Z,100060.33
2019-02-09T11:20:25.876Z,100062.97
2019-02-09T11:22:58.297Z,100066.45
2019-02-09T11:25:30.578Z,100073.45
2019-02-09T11:28:02.950Z,100074.33
2019-02-09T11:30:35.462Z,100073.03
2019-02-09T11:33:07.921Z,100080.03
2019-02-09T11:35:40.326Z,100071.71
2019-02-09T11:38:13.688Z,100067.36
2019-02-09T11:40:46.143Z,100068.23
2019-02-09T11:43:18.464Z,100059.03
2019-02-09T11:45:50.761Z,100060.33
2019-02-09T11:48:23.036Z,100071.28
2019-02-09T11:50:55.307Z,100076.11
2019-02-09T11:53:28.145Z,100070.66
2019-02-09T11:56:00.580Z,100074.30
2019-02-09T11:58:32.942Z,100071.67
2019-02-09T12:01:06.312Z,100079.28
2019-02-09T12:03:39.453Z,100075.48
2019-02-09T12:06:12.465Z,100067.23
2019-02-09T12:08:44.879Z,100072.06
2019-02-09T12:11:17.313Z,100064.69
2019-02-09T12:13:55.145Z,100056.05
2019-02-09T12:16:23.604Z,100050.69
2019-02-09T12:18:56.011Z,100046.63
2019-02-09T12:21:28.534Z,100046.80
2019-02-09T12:24:00.841Z,100045.53
2019-02-09T12:26:33.314Z,100053.14
2019-02-09T12:29:05.976Z,100051.58
2019-02-09T12:31:38.304Z,100044.80
2019-02-09T12:34:10.592Z,100045.67
2019-02-09T12:36:42.945Z,100054.14
2019-02-09T12:39:15.329Z,100056.80
2019-02-09T12:41:47.633Z,100059.38
2019-02-09T12:44:19.910Z,100073.21
2019-02-09T12:46:52.270Z,100069.65
2019-02-09T12:49:25.587Z,100065.39
2019-02-09T12:51:57.879Z,100059.88
2019-02-09T12:54:30.204Z,100072.38
2019-02-09T12:57:02.581Z,100076.76
2019-02-09T12:59:39.667Z,100077.53
2019-02-09T13:02:12.203Z,100079.04
2019-02-09T13:05:01.236Z,100080.48
2019-02-09T13:07:33.709Z,100086.30
2019-02-09T13:10:06.876Z,100089.89
2019-02-09T13:12:39.367Z,100083.83
2019-02-09T13:15:14.637Z,100086.06
2019-02-09T13:17:47.264Z,100097.48
2019-02-09T13:20:25.612Z,100098.84
2019-02-09T13:22:58.340Z,100103.67
2019-02-09T13:25:30.808Z,100108.05
2019-02-09T13:28:03.157Z,100105.42
2019-02-09T13:30:35.863Z,100106.30
2019-02-09T13:33:09.389Z,100111.56
2019-02-09T13:35:42.096Z,100102.35
2019-02-09T13:38:14.450Z,100108.92
2019-02-09T13:40:46.867Z,100102.23
2019-02-09T13:43:19.302Z,100098.17
2019-02-09T13:45:53.203Z,100092.38
2019-02-09T13:48:25.661Z,100089.62
2019-02-09T13:50:58.164Z,100097.87
2019-02-09T13:53:31.490Z,100100.86
2019-02-09T13:56:03.853Z,100099.89
2019-02-09T13:58:36.237Z,100112.48
2019-02-09T14:01:08.682Z,100111.34
2019-02-09T14:03:46.662Z,100113.58
2019-02-09T14:06:15.258Z,100111.45
2019-02-09T14:08:48.745Z,100115.83
2019-02-09T14:11:21.037Z,100116.31
2019-02-09T14:13:53.317Z,100122.02
2019-02-09T14:16:25.787Z,100118.11
2019-02-09T14:18:58.083Z,100123.36
2019-02-09T14:21:30.610Z,100123.38
2019-02-09T14:24:02.862Z,100120.75
2019-02-09T14:26:35.418Z,100113.73
2019-02-09T14:29:07.989Z,100115.05
2019-02-09T14:31:40.483Z,100114.62
2019-02-09T14:34:13.119Z,100121.19
2019-02-09T14:36:46.571Z,100119.88
2019-02-09T14:39:21.096Z,100118.56
2019-02-09T14:41:54.456Z,100121.22
2019-02-09T14:44:26.974Z,100117.70
2019-02-09T14:46:59.500Z,100121.20
2019-02-09T14:49:31.931Z,100129.55
2019-02-09T14:52:04.857Z,100126.47
2019-02-09T14:54:37.194Z,100120.33
2019-02-09T14:57:09.620Z,100130.84
2019-02-09T14:59:41.980Z,100134.77
2019-02-09T15:02:14.273Z,100130.84
2019-02-09T15:04:46.609Z,100131.72
2019-02-09T15:07:18.875Z,100133.48
2019-02-09T15:09:51.317Z,100119.00
2019-02-09T15:12:23.607Z,100126.91
2019-02-09T15:14:55.886Z,100128.66
2019-02-09T15:17:28.297Z,100122.08
2019-02-09T15:20:00.637Z,100115.94
2019-02-09T15:22:33.027Z,100120.77
2019-02-09T15:25:06.420Z,100121.63
2019-02-09T15:27:38.684Z,100119.88
2019-02-09T15:30:13.828Z,100125.11
2019-02-09T15:32:46.220Z,100131.23
2019-02-09T15:35:18.553Z,100138.68
2019-02-09T15:37:50.829Z,100132.58
2019-02-09T15:40:24.308Z,100137.39
2019-02-09T15:42:56.683Z,100142.17
2019-02-09T15:45:29.278Z,100153.98
2019-02-09T15:48:01.654Z,100145.66
2019-02-09T15:50:35.136Z,100155.70
2019-02-09T15:53:07.492Z,100153.52
2019-02-09T15:55:39.906Z,100159.62
2019-02-09T15:58:12.215Z,100163.52
2019-02-09T16:00:44.564Z,100165.27
2019-02-09T16:03:16.893Z,100169.63
2019-02-09T16:05:49.185Z,100172.16
2019-02-09T16:08:21.594Z,100173.42
2019-02-09T16:10:53.961Z,100170.73
2019-02-09T16:13:26.383Z,100175.97
2019-02-09T16:15:59.085Z,100173.33
2019-02-09T16:18:31.521Z,100172.87
2019-02-09T16:21:04.029Z,100178.52
2019-02-09T16:23:36.458Z,100182.00
2019-02-09T16:26:19.770Z,100181.10
2019-02-09T16:28:52.194Z,100186.77
2019-02-09T16:31:24.655Z,100188.05
2019-02-09T16:33:57.106Z,100188.91
2019-02-09T16:36:29.440Z,100190.63
2019-02-09T16:39:01.936Z,100198.48
2019-02-09T16:41:35.794Z,100204.17
2019-02-09T16:44:08.291Z,100205.91
2019-02-09T16:46:40.635Z,100200.19
2019-02-09T16:49:15.343Z,100219.41
2019-02-09T16:51:47.661Z,100223.77
2019-02-09T16:54:20.172Z,100226.80
2019-02-09T16:56:52.528Z,100225.09
2019-02-09T16:59:26.692Z,100241.66
2019-02-09T17:01:59.021Z,100238.16
2019-02-09T17:04:33.325Z,100247.73
2019-02-09T17:07:05.898Z,100244.25
2019-02-09T17:09:38.259Z,100240.31
2019-02-09T17:12:10.655Z,100245.52
2019-02-09T17:14:43.002Z,100246.38
2019-02-09T17:17:15.498Z,100247.19
2019-02-09T17:19:49.379Z,100246.72
2019-02-09T17:22:21.780Z,100253.67
2019-02-09T17:24:54.108Z,100257.55
2019-02-09T17:27:26.491Z,100258.44
2019-02-09T17:29:58.802Z,100261.87
2019-02-09T17:32:31.203Z,100250.92
2019-02-09T17:35:03.653Z,100260.47
2019-02-09T17:37:36.088Z,100262.62
2019-02-09T17:40:12.177Z,100271.70
2019-02-09T17:42:44.545Z,100273.81
2019-02-09T17:45:19.888Z,100271.95
2019-02-09T17:47:52.219Z,100280.64
2019-02-09T17:50:24.746Z,100277.95
2019-02-09T17:52:57.189Z,100274.83
2019-02-09T17:55:29.734Z,100272.16
2019-02-09T17:58:02.271Z,100270.41
2019-02-09T18:00:39.994Z,100258.58
2019-02-09T18:03:12.570Z,100259.45
2019-02-09T18:05:45.095Z,100260.76
2019-02-09T18:08:17.583Z,100257.70
2019-02-09T18:10:49.968Z,100266.42
2019-02-09T18:13:22.591Z,100278.60
2019-02-09T18:15:54.938Z,100279.91
2019-02-09T18:18:27.284Z,100273.34
2019-02-09T18:20:59.674Z,100272.89
2019-02-09T18:23:32.258Z,100269.00
2019-02-09T18:26:04.989Z,100267.68
2019-02-09T18:28:37.433Z,100274.68
2019-02-09T18:31:09.990Z,100276.02
2019-02-09T18:33:42.416Z,100277.37
2019-02-09T18:36:14.865Z,100267.76
2019-02-09T18:38:48.406Z,100268.66
2019-02-09T18:41:20.842Z,100260.81
2019-02-09T18:43:53.278Z,100246.37
2019-02-09T18:46:25.959Z,100247.70
2019-02-09T18:48:58.536Z,100244.20
2019-02-09T18:51:31.067Z,100246.84
2019-02-09T18:54:03.579Z,100258.63
2019-02-09T18:56:36.200Z,100262.53
2019-02-09T18:59:08.912Z,100253.38
2019-02-09T19:01:41.428Z,100249.89
2019-02-09T19:04:16.935Z,100261.70
2019-02-09T19:06:50.295Z,100267.81
2019-02-09T19:09:25.884Z,100265.14
2019-02-09T19:11:58.386Z,100268.56
2019-02-09T19:14:31.013Z,100272.03
2019-02-09T19:17:03.522Z,100272.04
2019-02-09T19:19:36.213Z,100285.95
2019-02-09T19:22:09.494Z,100277.19
2019-02-09T19:24:41.974Z,100263.13
2019-02-09T19:27:14.523Z,100260.97
2019-02-09T19:29:46.879Z,100262.30
2019-02-09T19:32:24.409Z,100275.41
2019-02-09T19:34:58.379Z,100273.22
2019-02-09T19:37:30.852Z,100272.79
2019-02-09T19:40:03.197Z,100279.30
2019-02-09T19:42:35.743Z,100282.77
2019-02-09T19:45:11.809Z,100284.97
2019-02-09T19:47:44.358Z,100288.48
2019-02-09T19:50:19.934Z,100293.23
2019-02-09T19:52:52.497Z,100291.13
2019-02-09T19:55:26.850Z,100294.20
2019-02-09T19:57:59.305Z,100296.82
2019-02-09T20:00:34.539Z,100295.03
2019-02-09T20:03:08.103Z,100296.73
2019-02-09T20:05:40.667Z,100292.81
2019-02-09T20:08:13.518Z,100286.67
2019-02-09T20:10:45.979Z,100297.17
2019-02-09T20:13:18.542Z,100299.72
2019-02-09T20:15:51.474Z,100300.98
2019-02-09T20:18:23.818Z,100303.53
2019-02-09T20:20:57.008Z,100305.21
2019-02-09T20:23:29.500Z,100299.52
2019-02-09T20:26:02.083Z,100303.88
2019-02-09T20:28:34.947Z,100299.44
2019-02-09T20:31:16.764Z,100309.96
2019-02-09T20:33:57.326Z,100309.90
2019-02-09T20:36:29.915Z,100313.82
2019-02-09T20:39:08.317Z,100312.94
2019-02-09T20:41:41.614Z,100319.02
2019-02-09T20:44:14.152Z,100320.72
2019-02-09T20:46:46.598Z,100325.08
2019-02-09T20:49:19.159Z,100329.81
2019-02-09T20:51:51.569Z,100322.88
2019-02-09T20:54:23.946Z,100329.78
2019-02-09T20:57:09.373Z,100323.73
2019-02-09T20:59:40.216Z,100335.95
2019-02-09T21:02:12.682Z,100336.88
2019-02-09T21:04:45.174Z,100335.50
2019-02-09T21:07:24.563Z,100339.91
2019-02-09T21:09:56.198Z,100337.81
2019-02-09T21:12:30.491Z,100333.56
2019-02-09T21:15:02.935Z,100339.76
2019-02-09T21:17:35.647Z,100342.95
2019-02-09T21:20:08.279Z,100343.06
2019-02-09T21:22:40.809Z,100339.70
2019-02-09T21:25:17.879Z,100339.04
2019-02-09T21:27:52.152Z,100345.72
2019-02-09T21:30:25.132Z,100351.88
2019-02-09T21:33:11.832Z,100354.53
2019-02-09T21:35:44.597Z,100347.95
2019-02-09T21:38:17.011Z,100355.84
2019-02-09T21:40:49.447Z,100358.53
2019-02-09T21:43:21.953Z,100355.89
2019-02-09T21:45:54.503Z,100357.12
2019-02-09T21:48:27.173Z,100347.53
2019-02-09T21:50:59.550Z,100354.91
2019-02-09T21:53:31.978Z,100357.53
2019-02-09T21:56:04.512Z,100353.59
2019-02-09T21:58:38.107Z,100358.80
2019-02-09T22:01:10.727Z,100351.40
2019-02-09T22:03:44.583Z,100347.42
2019-02-09T22:06:17.002Z,100346.09
2019-02-09T22:08:49.728Z,100354.38
2019-02-09T22:11:22.382Z,100353.46
2019-02-09T22:13:54.863Z,100356.03
2019-02-09T22:16:27.492Z,100352.02
2019-02-09T22:19:00.960Z,100355.86
2019-02-09T22:21:33.688Z,100359.80
2019-02-09T22:24:06.141Z,100348.80
2019-02-09T22:26:40.229Z,100356.20
2019-02-09T22:29:12.770Z,100357.03
2019-02-09T22:31:51.189Z,100361.84
2019-02-09T22:34:21.229Z,100353.59
2019-02-09T22:36:53.660Z,100354.02
2019-02-09T22:39:27.674Z,100357.97
2019-02-09T22:42:01.886Z,100356.69
2019-02-09T22:44:35.266Z,100357.97
2019-02-09T22:47:07.551Z,100358.31
2019-02-09T22:49:39.968Z,100363.97
2019-02-09T22:52:12.395Z,100366.13
2019-02-09T22:54:44.687Z,100363.88
2019-02-09T22:57:17.137Z,100362.02
2019-02-09T22:59:49.499Z,100371.16
2019-02-09T23:02:21.943Z,100364.22
2019-02-09T23:05:44.556Z,100364.16
2019-02-09T23:08:16.986Z,100370.64
2019-02-09T23:10:49.353Z,100375.83
2019-02-09T23:13:21.704Z,100384.50
2019-02-09T23:15:54.104Z,100377.08
2019-02-09T23:18:26.501Z,100381.36
2019-02-09T23:20:58.878Z,100371.27
2019-02-09T23:23:31.226Z,100376.95
2019-02-09T23:26:03.625Z,100387.84
2019-02-09T23:28:35.863Z,100386.43
2019-02-09T23:31:08.174Z,100382.02
2019-02-09T23:33:40.558Z,100377.60
2019-02-09T23:36:16.296Z,100380.19
2019-02-09T23:38:47.150Z,100382.31
2019-02-09T23:41:19.503Z,100386.62
2019-02-09T23:43:51.925Z,100380.44
2019-02-09T23:46:24.872Z,100387.75
2019-02-09T23:48:57.219Z,100385.59
2019-02-09T23:51:29.521Z,100392.95
2019-02-09T23:54:02.626Z,100390.72
2019-02-09T23:56:34.989Z,100390.27
2019-02-09T23:59:07.484Z,100390.27
